Time;durP1;ratioP1;P1;durP2;ratioP2;P2;SDS_P1;SDS_P2;PMS_P1;PMS_P2;Temp;Humidity;BMP_temperature;BMP_pressure;BME280_temperature;BME280_humidity;BME280_pressure;Samples;Min_cycle;Max_cycle;Signal;HPM_P1;HPM_P2
2022/07/16 00:03:55;;;;;;;;;;;23.70;60.70;;;;;;5077942;28;19915;-73
2022/07/16 00:06:21;;;;;;;;;;;23.70;60.80;;;;;;5077472;28;20349;-74
2022/07/16 00:08:47;;;;;;;;;;;23.70;60.80;;;;;;5060111;28;19909;-73
2022/07/16 00:11:13;;;;;;;;;;;23.70;60.90;;;;;;5059576;28;19927;-73
2022/07/16 00:13:39;;;;;;;;;;;23.70;60.80;;;;;;5077368;28;19966;-73
2022/07/16 00:16:06;;;;;;;;;;;23.60;60.80;;;;;;5077434;28;20259;-73
2022/07/16 00:21:15;;;;;;;;;;;23.60;60.80;;;;;;5077425;28;19915;-73
2022/07/16 00:23:41;;;;;;;;;;;23.60;60.90;;;;;;5077274;28;20326;-73
2022/07/16 00:26:06;;;;;;;;;;;23.50;60.90;;;;;;5077384;28;19909;-73
2022/07/16 00:28:32;;;;;;;;;;;23.60;60.80;;;;;;5077089;28;19913;-73
2022/07/16 00:30:57;;;;;;;;;;;23.60;60.90;;;;;;5076985;28;19916;-73
2022/07/16 00:33:23;;;;;;;;;;;23.50;60.80;;;;;;5077069;28;19908;-74
2022/07/16 00:35:48;;;;;;;;;;;23.60;60.80;;;;;;5077158;28;19908;-73
2022/07/16 00:38:14;;;;;;;;;;;23.50;60.70;;;;;;5076763;28;19916;-74
2022/07/16 00:40:40;;;;;;;;;;;23.50;60.80;;;;;;5046826;28;19927;-73
2022/07/16 00:43:09;;;;;;;;;;;23.50;60.90;;;;;;5039006;28;20255;-73
2022/07/16 00:45:35;;;;;;;;;;;23.50;61.00;;;;;;5057030;28;20321;-74
2022/07/16 00:48:00;;;;;;;;;;;23.50;60.90;;;;;;5038942;28;20016;-74
2022/07/16 00:50:26;;;;;;;;;;;23.40;61.00;;;;;;5056778;28;19963;-74
2022/07/16 00:52:52;;;;;;;;;;;23.40;60.90;;;;;;5039160;28;20255;-74
2022/07/16 00:55:17;;;;;;;;;;;23.50;61.10;;;;;;5057127;28;20260;-74
2022/07/16 00:57:43;;;;;;;;;;;23.40;61.00;;;;;;5056935;28;19976;-74
2022/07/16 01:00:09;;;;;;;;;;;23.40;61.00;;;;;;5057330;28;19908;-74
2022/07/16 01:02:35;;;;;;;;;;;23.40;61.10;;;;;;5055453;28;19915;-74
2022/07/16 01:05:01;;;;;;;;;;;23.40;61.40;;;;;;5056510;28;19916;-74
2022/07/16 01:07:27;;;;;;;;;;;23.40;61.20;;;;;;5038563;28;19913;-74
2022/07/16 01:09:53;;;;;;;;;;;23.40;61.30;;;;;;5038417;28;20017;-74
2022/07/16 01:12:19;;;;;;;;;;;23.40;61.30;;;;;;5056319;28;19916;-74
2022/07/16 01:14:45;;;;;;;;;;;23.30;61.20;;;;;;5055008;28;19909;-74
2022/07/16 01:17:10;;;;;;;;;;;23.30;61.20;;;;;;5056255;28;19913;-74
2022/07/16 01:19:36;;;;;;;;;;;23.30;61.30;;;;;;5056422;28;20015;-74
2022/07/16 01:22:01;;;;;;;;;;;23.30;61.40;;;;;;5056519;28;19916;-74
2022/07/16 01:24:27;;;;;;;;;;;23.30;61.30;;;;;;5056272;28;20313;-74
2022/07/16 01:26:52;;;;;;;;;;;23.30;61.60;;;;;;5055962;28;19975;-74
2022/07/16 01:29:18;;;;;;;;;;;23.20;61.50;;;;;;5055870;28;20302;-74
2022/07/16 01:31:43;;;;;;;;;;;23.20;61.50;;;;;;5037964;28;19909;-74
2022/07/16 01:34:27;;;;;;;;;;;23.20;61.50;;;;;;5055972;28;19909;-73
2022/07/16 01:36:56;;;;;;;;;;;23.20;62.10;;;;;;5056218;28;19936;-74
2022/07/16 01:39:22;;;;;;;;;;;23.20;61.50;;;;;;5057092;28;19913;-74
2022/07/16 01:41:49;;;;;;;;;;;23.20;61.50;;;;;;5075828;28;20318;-74
2022/07/16 01:44:15;;;;;;;;;;;23.20;61.60;;;;;;5075546;28;19995;-74
2022/07/16 01:46:40;;;;;;;;;;;23.20;61.70;;;;;;5076110;28;19955;-74
2022/07/16 01:49:06;;;;;;;;;;;23.20;61.70;;;;;;5075631;28;19912;-73
2022/07/16 01:51:31;;;;;;;;;;;23.20;61.70;;;;;;5075595;28;19908;-73
2022/07/16 01:53:57;;;;;;;;;;;23.20;61.70;;;;;;5075714;28;20412;-73
2022/07/16 01:56:22;;;;;;;;;;;23.10;61.60;;;;;;5058041;28;19912;-72
2022/07/16 01:58:48;;;;;;;;;;;23.20;61.60;;;;;;5075531;28;20005;-73
2022/07/16 02:01:13;;;;;;;;;;;23.10;61.50;;;;;;5075439;28;19998;-74
2022/07/16 02:03:39;;;;;;;;;;;23.10;61.80;;;;;;5075371;28;20050;-74
2022/07/16 02:06:04;;;;;;;;;;;23.10;61.70;;;;;;5057377;28;19962;-74
2022/07/16 02:08:30;;;;;;;;;;;23.10;61.80;;;;;;5075145;28;19908;-73
2022/07/16 02:10:55;;;;;;;;;;;23.00;61.70;;;;;;5075020;28;19924;-74
2022/07/16 02:13:21;;;;;;;;;;;23.10;61.90;;;;;;5075105;28;19908;-74
2022/07/16 02:15:46;;;;;;;;;;;23.00;61.80;;;;;;5075209;28;19962;-74
2022/07/16 02:18:12;;;;;;;;;;;23.00;61.80;;;;;;5057397;28;19917;-74
2022/07/16 02:20:38;;;;;;;;;;;23.00;61.90;;;;;;5057016;28;19912;-73
2022/07/16 02:23:03;;;;;;;;;;;23.10;62.00;;;;;;5075194;28;20362;-73
2022/07/16 02:25:29;;;;;;;;;;;23.10;62.00;;;;;;5075111;28;19962;-73
2022/07/16 02:28:06;;;;;;;;;;;23.00;61.90;;;;;;5074528;28;20047;-72
2022/07/16 02:30:33;;;;;;;;;;;23.10;62.00;;;;;;5074771;28;19922;-72
2022/07/16 02:32:58;;;;;;;;;;;23.00;62.00;;;;;;5074828;28;20409;-73
2022/07/16 02:35:24;;;;;;;;;;;23.00;61.90;;;;;;5074859;28;19934;-73
2022/07/16 02:37:49;;;;;;;;;;;23.10;62.70;;;;;;5075019;28;19908;-73
2022/07/16 02:40:15;;;;;;;;;;;23.00;62.10;;;;;;5074703;28;20278;-74
2022/07/16 02:42:40;;;;;;;;;;;23.00;62.10;;;;;;5074626;28;20258;-73
2022/07/16 02:45:07;;;;;;;;;;;23.00;62.10;;;;;;5074657;28;19913;-73
2022/07/16 02:47:33;;;;;;;;;;;23.10;62.10;;;;;;5074528;28;20393;-74
2022/07/16 02:49:59;;;;;;;;;;;23.10;62.00;;;;;;5074527;28;19964;-73
2022/07/16 02:52:24;;;;;;;;;;;23.10;62.00;;;;;;5074286;28;19916;-73
2022/07/16 02:54:50;;;;;;;;;;;23.10;62.10;;;;;;5074432;28;20347;-74
2022/07/16 02:57:15;;;;;;;;;;;23.10;62.10;;;;;;5074288;28;20317;-73
2022/07/16 02:59:41;;;;;;;;;;;23.20;62.10;;;;;;5074411;28;19935;-73
2022/07/16 03:02:06;;;;;;;;;;;23.10;62.00;;;;;;5074096;28;20278;-72
2022/07/16 03:04:32;;;;;;;;;;;23.20;62.10;;;;;;5072815;28;20022;-74
2022/07/16 03:06:58;;;;;;;;;;;23.20;62.10;;;;;;5073950;28;20014;-74
2022/07/16 03:09:23;;;;;;;;;;;23.20;62.10;;;;;;5074057;28;19916;-76
2022/07/16 03:11:49;;;;;;;;;;;23.20;62.10;;;;;;5072744;28;20279;-74
2022/07/16 03:14:14;;;;;;;;;;;23.20;62.10;;;;;;5074376;28;20305;-74
2022/07/16 03:16:40;;;;;;;;;;;23.20;62.10;;;;;;5074116;28;19909;-74
2022/07/16 03:19:05;;;;;;;;;;;23.30;62.10;;;;;;5056274;28;19909;-74
2022/07/16 03:21:31;;;;;;;;;;;23.30;62.00;;;;;;5074064;28;19912;-74
2022/07/16 03:23:56;;;;;;;;;;;23.30;61.80;;;;;;5074189;28;19995;-74
2022/07/16 03:26:22;;;;;;;;;;;23.30;61.90;;;;;;5055777;28;19966;-75
2022/07/16 03:28:47;;;;;;;;;;;23.30;62.00;;;;;;5074765;28;19915;-73
2022/07/16 03:31:13;;;;;;;;;;;23.30;61.80;;;;;;5073901;28;19923;-72
2022/07/16 03:33:38;;;;;;;;;;;23.30;61.90;;;;;;5074138;28;20042;-74
2022/07/16 03:36:04;;;;;;;;;;;23.40;61.90;;;;;;5073765;28;19908;-73
2022/07/16 03:41:13;;;;;;;;;;;23.40;61.90;;;;;;5073548;28;19928;-73
2022/07/16 03:43:39;;;;;;;;;;;23.40;61.90;;;;;;5073853;28;19909;-74
2022/07/16 03:46:05;;;;;;;;;;;23.40;61.80;;;;;;5073966;28;19920;-74
2022/07/16 03:48:30;;;;;;;;;;;23.40;61.90;;;;;;5073820;28;19995;-74
2022/07/16 03:50:56;;;;;;;;;;;23.40;61.90;;;;;;5073720;28;20019;-74
2022/07/16 03:53:21;;;;;;;;;;;23.40;62.40;;;;;;5073566;28;19951;-74
2022/07/16 03:55:47;;;;;;;;;;;23.40;61.90;;;;;;5073692;28;19908;-74
2022/07/16 03:58:12;;;;;;;;;;;23.40;61.80;;;;;;5073704;28;19912;-73
2022/07/16 04:00:38;;;;;;;;;;;23.40;61.70;;;;;;5073716;28;19909;-73
2022/07/16 04:03:03;;;;;;;;;;;23.40;61.70;;;;;;5073454;28;19908;-73
2022/07/16 04:05:29;;;;;;;;;;;23.40;61.70;;;;;;5073705;28;20417;-73
2022/07/16 04:07:55;;;;;;;;;;;23.40;61.80;;;;;;5073380;28;19912;-74
2022/07/16 04:10:20;;;;;;;;;;;23.40;61.70;;;;;;5073324;28;19925;-74
2022/07/16 04:12:46;;;;;;;;;;;23.40;61.70;;;;;;5073649;28;19961;-73
2022/07/16 04:15:11;;;;;;;;;;;23.50;61.80;;;;;;5073720;28;19908;-74
2022/07/16 04:17:37;;;;;;;;;;;23.50;61.70;;;;;;5073684;28;19916;-73
2022/07/16 04:20:03;;;;;;;;;;;23.50;61.70;;;;;;5072090;28;19912;-73
2022/07/16 04:22:28;;;;;;;;;;;23.50;61.60;;;;;;5073497;28;20270;-74
2022/07/16 04:24:54;;;;;;;;;;;23.50;61.50;;;;;;5073702;28;19909;-73
2022/07/16 04:27:20;;;;;;;;;;;23.50;61.50;;;;;;5073428;28;19909;-74
2022/07/16 04:29:45;;;;;;;;;;;23.60;61.50;;;;;;5073801;28;20007;-74
2022/07/16 04:32:11;;;;;;;;;;;23.60;61.50;;;;;;5073241;28;19909;-74
2022/07/16 04:34:37;;;;;;;;;;;23.50;61.50;;;;;;5073309;28;19971;-74
2022/07/16 04:37:02;;;;;;;;;;;23.50;61.40;;;;;;5073241;28;20266;-74
2022/07/16 04:39:28;;;;;;;;;;;23.60;61.40;;;;;;5076202;28;19909;-73
2022/07/16 04:41:53;;;;;;;;;;;23.60;61.50;;;;;;5077749;28;20338;-74
2022/07/16 04:44:19;;;;;;;;;;;23.50;61.50;;;;;;5076704;28;19908;-74
2022/07/16 04:46:44;;;;;;;;;;;23.60;61.50;;;;;;5076711;28;20337;-74
2022/07/16 04:49:10;;;;;;;;;;;23.60;61.40;;;;;;5076617;28;19927;-73
2022/07/16 04:51:35;;;;;;;;;;;23.60;61.50;;;;;;5076791;28;19962;-74
2022/07/16 04:54:01;;;;;;;;;;;23.70;61.50;;;;;;5076779;28;19912;-73
2022/07/16 04:56:26;;;;;;;;;;;23.60;61.40;;;;;;5077061;28;20385;-74
2022/07/16 04:58:52;;;;;;;;;;;23.70;61.50;;;;;;5076616;28;20014;-74
2022/07/16 05:01:17;;;;;;;;;;;23.70;61.50;;;;;;5076746;28;19909;-74
2022/07/16 05:03:43;;;;;;;;;;;23.70;61.50;;;;;;5076543;28;19912;-74
2022/07/16 05:06:08;;;;;;;;;;;23.70;61.50;;;;;;5076477;28;19908;-74
2022/07/16 05:08:34;;;;;;;;;;;23.70;61.60;;;;;;5076387;28;20385;-74
2022/07/16 05:10:59;;;;;;;;;;;23.70;61.60;;;;;;5058655;28;20351;-74
2022/07/16 05:13:25;;;;;;;;;;;23.70;61.60;;;;;;5076438;28;19954;-74
2022/07/16 05:15:51;;;;;;;;;;;23.80;61.80;;;;;;5076285;28;20216;-74
2022/07/16 05:18:16;;;;;;;;;;;23.80;61.70;;;;;;5076384;28;20007;-73
2022/07/16 05:20:42;;;;;;;;;;;23.80;61.70;;;;;;5075929;28;19913;-77
2022/07/16 05:23:07;;;;;;;;;;;23.80;61.70;;;;;;5076036;28;19912;-73
2022/07/16 05:25:33;;;;;;;;;;;23.90;61.80;;;;;;5076225;28;19920;-75
2022/07/16 05:27:59;;;;;;;;;;;23.90;61.80;;;;;;5076214;28;19908;-74
2022/07/16 05:30:24;;;;;;;;;;;23.90;61.80;;;;;;5075824;28;19917;-75
2022/07/16 05:32:50;;;;;;;;;;;23.90;61.80;;;;;;5057893;28;20347;-74
2022/07/16 05:35:16;;;;;;;;;;;23.90;61.70;;;;;;5075872;28;19991;-76
2022/07/16 05:37:41;;;;;;;;;;;23.90;61.90;;;;;;5075915;28;19966;-74
2022/07/16 05:40:07;;;;;;;;;;;24.00;61.80;;;;;;5076249;28;19920;-74
2022/07/16 05:42:33;;;;;;;;;;;24.00;61.80;;;;;;5075830;28;20014;-74
2022/07/16 05:44:58;;;;;;;;;;;24.00;61.80;;;;;;5075595;28;20358;-74
2022/07/16 05:47:24;;;;;;;;;;;24.00;61.80;;;;;;5075813;28;20258;-74
2022/07/16 05:49:49;;;;;;;;;;;24.10;61.80;;;;;;5075036;28;19982;-75
2022/07/16 05:52:15;;;;;;;;;;;24.20;61.80;;;;;;5057281;28;19994;-74
2022/07/16 05:54:40;;;;;;;;;;;24.20;61.80;;;;;;5075371;28;19923;-75
2022/07/16 05:57:06;;;;;;;;;;;24.20;61.70;;;;;;5076915;28;19954;-74
2022/07/16 05:59:32;;;;;;;;;;;24.20;61.70;;;;;;5075328;28;19908;-74
2022/07/16 06:01:57;;;;;;;;;;;24.30;61.60;;;;;;5075324;28;19908;-74
2022/07/16 06:04:23;;;;;;;;;;;24.40;61.50;;;;;;5057240;28;19919;-74
2022/07/16 06:06:48;;;;;;;;;;;24.40;61.40;;;;;;5075034;28;19958;-74
2022/07/16 06:09:14;;;;;;;;;;;24.40;61.40;;;;;;5075139;28;20022;-75
2022/07/16 06:11:40;;;;;;;;;;;24.50;61.20;;;;;;5075166;28;19915;-75
2022/07/16 06:14:05;;;;;;;;;;;24.50;61.20;;;;;;5075162;28;19908;-73
2022/07/16 06:16:31;;;;;;;;;;;24.50;61.10;;;;;;5074919;28;19908;-74
2022/07/16 06:18:56;;;;;;;;;;;24.50;61.10;;;;;;5074908;28;19908;-74
2022/07/16 06:21:22;;;;;;;;;;;24.50;61.00;;;;;;5074880;28;19912;-74
2022/07/16 06:23:48;;;;;;;;;;;24.50;61.00;;;;;;5075304;28;19908;-74
2022/07/16 06:26:13;;;;;;;;;;;24.50;61.00;;;;;;5074987;28;20405;-74
2022/07/16 06:28:39;;;;;;;;;;;24.60;61.10;;;;;;5074422;28;19908;-74
2022/07/16 06:31:04;;;;;;;;;;;24.50;61.00;;;;;;5074484;28;19916;-74
2022/07/16 06:33:30;;;;;;;;;;;24.50;61.00;;;;;;5074597;28;19909;-74
2022/07/16 06:35:55;;;;;;;;;;;24.50;61.00;;;;;;5074548;28;19915;-74
2022/07/16 06:38:21;;;;;;;;;;;24.60;61.10;;;;;;5075296;28;20258;-74
2022/07/16 06:40:46;;;;;;;;;;;24.60;61.60;;;;;;5074844;28;19920;-73
2022/07/16 06:43:12;;;;;;;;;;;24.60;61.00;;;;;;5074536;28;19913;-74
2022/07/16 06:45:38;;;;;;;;;;;24.60;60.90;;;;;;5074746;28;19913;-74
2022/07/16 06:48:03;;;;;;;;;;;24.60;60.90;;;;;;5074573;28;20347;-73
2022/07/16 06:50:29;;;;;;;;;;;24.70;60.90;;;;;;5074130;28;19916;-74
2022/07/16 06:52:54;;;;;;;;;;;24.70;60.90;;;;;;5074316;28;19908;-73
2022/07/16 06:55:20;;;;;;;;;;;24.70;61.40;;;;;;5074472;28;19914;-74
2022/07/16 06:57:45;;;;;;;;;;;24.70;60.60;;;;;;5074214;28;20362;-74
2022/07/16 07:00:11;;;;;;;;;;;24.70;60.50;;;;;;5072545;28;19948;-74
2022/07/16 07:02:37;;;;;;;;;;;24.80;60.40;;;;;;5074051;28;19944;-74
2022/07/16 07:05:03;;;;;;;;;;;24.70;60.30;;;;;;5074136;28;19995;-74
2022/07/16 07:07:28;;;;;;;;;;;24.80;60.20;;;;;;5074479;28;19915;-73
2022/07/16 07:09:54;;;;;;;;;;;24.80;60.20;;;;;;5074030;28;20282;-74
2022/07/16 07:12:19;;;;;;;;;;;24.80;60.20;;;;;;5074272;28;20347;-73
2022/07/16 07:14:45;;;;;;;;;;;24.80;60.10;;;;;;5073811;28;19916;-74
2022/07/16 07:17:10;;;;;;;;;;;24.90;60.10;;;;;;5056328;28;19908;-74
2022/07/16 07:19:36;;;;;;;;;;;24.90;60.00;;;;;;5073912;28;19909;-74
2022/07/16 07:22:01;;;;;;;;;;;24.90;59.90;;;;;;5056485;28;20351;-74
2022/07/16 07:24:27;;;;;;;;;;;24.90;59.50;;;;;;5074054;28;19931;-74
2022/07/16 07:26:52;;;;;;;;;;;25.00;59.40;;;;;;5074081;28;19913;-74
2022/07/16 07:29:18;;;;;;;;;;;25.00;59.20;;;;;;5073735;28;19913;-74
2022/07/16 07:31:43;;;;;;;;;;;25.00;59.00;;;;;;5073887;28;19909;-74
2022/07/16 07:34:09;;;;;;;;;;;25.00;59.00;;;;;;5073571;28;20003;-75
2022/07/16 07:36:34;;;;;;;;;;;25.10;59.00;;;;;;5073877;28;19978;-74
2022/07/16 07:39:00;;;;;;;;;;;25.00;58.80;;;;;;5073878;28;19912;-74
2022/07/16 07:41:25;;;;;;;;;;;25.10;58.70;;;;;;5073977;28;19939;-74
2022/07/16 07:43:51;;;;;;;;;;;25.10;58.50;;;;;;5073926;28;19954;-74
2022/07/16 07:46:17;;;;;;;;;;;25.10;58.30;;;;;;5073712;28;19912;-74
2022/07/16 07:48:42;;;;;;;;;;;25.10;58.30;;;;;;5073345;28;19913;-74
2022/07/16 07:51:08;;;;;;;;;;;25.10;58.30;;;;;;5073444;28;19921;-73
2022/07/16 07:53:34;;;;;;;;;;;25.20;58.30;;;;;;5074086;28;19916;-74
2022/07/16 07:56:00;;;;;;;;;;;25.20;58.90;;;;;;5073605;28;19909;-74
2022/07/16 07:58:25;;;;;;;;;;;25.10;58.10;;;;;;5073727;28;20365;-73
2022/07/16 08:00:54;;;;;;;;;;;25.20;58.10;;;;;;5073614;28;20013;-73
2022/07/16 08:03:20;;;;;;;;;;;25.20;57.90;;;;;;5073030;28;19931;-73
2022/07/16 08:05:46;;;;;;;;;;;25.20;57.80;;;;;;5073198;28;19916;-73
2022/07/16 08:08:11;;;;;;;;;;;25.30;57.70;;;;;;5073766;28;19909;-73
2022/07/16 08:10:37;;;;;;;;;;;25.30;57.50;;;;;;5073382;28;19916;-73
2022/07/16 08:13:02;;;;;;;;;;;25.20;57.40;;;;;;5076163;28;19944;-73
2022/07/16 08:15:28;;;;;;;;;;;25.30;57.50;;;;;;5077756;28;19955;-73
2022/07/16 08:17:53;;;;;;;;;;;25.30;57.40;;;;;;5076936;28;19909;-74
2022/07/16 08:20:19;;;;;;;;;;;25.30;57.30;;;;;;5076925;28;19962;-73
2022/07/16 08:22:45;;;;;;;;;;;25.30;57.10;;;;;;5077230;28;19912;-73
2022/07/16 08:27:55;;;;;;;;;;;25.40;56.80;;;;;;5077332;28;20313;-75
2022/07/16 08:30:20;;;;;;;;;;;25.30;56.60;;;;;;5077008;28;19960;-75
2022/07/16 08:32:46;;;;;;;;;;;25.40;56.40;;;;;;5077118;28;19920;-73
2022/07/16 08:35:12;;;;;;;;;;;25.40;56.50;;;;;;5077480;28;19909;-73
2022/07/16 08:37:38;;;;;;;;;;;25.40;56.30;;;;;;5076882;28;19954;-72
2022/07/16 08:40:05;;;;;;;;;;;25.40;56.20;;;;;;5076930;28;20374;-73
2022/07/16 08:42:32;;;;;;;;;;;25.40;56.10;;;;;;5076681;28;19915;-73
2022/07/16 08:44:58;;;;;;;;;;;25.40;55.90;;;;;;5076588;28;20267;-72
2022/07/16 08:47:24;;;;;;;;;;;25.40;55.70;;;;;;5076759;28;19916;-73
2022/07/16 08:49:50;;;;;;;;;;;25.40;55.70;;;;;;5076573;28;19932;-72
2022/07/16 08:52:18;;;;;;;;;;;25.40;55.50;;;;;;5076589;28;19962;-73
2022/07/16 08:54:44;;;;;;;;;;;25.50;55.50;;;;;;5076549;28;20009;-72
2022/07/16 08:57:09;;;;;;;;;;;25.50;55.50;;;;;;5076468;28;19931;-73
2022/07/16 08:59:35;;;;;;;;;;;25.50;55.40;;;;;;5076196;28;20351;-73
2022/07/16 09:02:01;;;;;;;;;;;25.50;55.30;;;;;;5076515;28;19909;-73
2022/07/16 09:04:26;;;;;;;;;;;25.50;55.30;;;;;;5076383;28;20277;-74
2022/07/16 09:06:52;;;;;;;;;;;25.50;55.20;;;;;;5076498;28;20023;-73
2022/07/16 09:09:18;;;;;;;;;;;25.50;55.30;;;;;;5076429;28;20355;-73
2022/07/16 09:11:44;;;;;;;;;;;25.60;55.10;;;;;;5076181;28;19908;-73
2022/07/16 09:14:13;;;;;;;;;;;25.60;54.90;;;;;;5076109;28;19908;-74
2022/07/16 09:16:42;;;;;;;;;;;25.60;54.90;;;;;;5076256;28;19913;-74
2022/07/16 09:19:15;;;;;;;;;;;25.60;54.70;;;;;;5076413;28;19916;-73
2022/07/16 09:21:58;;;;;;;;;;;25.70;55.10;;;;;;5076156;28;19912;-74
2022/07/16 09:24:43;;;;;;;;;;;25.70;54.50;;;;;;5075579;28;19920;-74
2022/07/16 09:27:10;;;;;;;;;;;25.70;54.50;;;;;;5076126;28;19908;-74
2022/07/16 09:29:36;;;;;;;;;;;25.70;54.40;;;;;;5075890;28;19951;-74
2022/07/16 09:32:02;;;;;;;;;;;25.70;54.20;;;;;;5076096;28;19914;-74
2022/07/16 09:34:28;;;;;;;;;;;25.80;54.30;;;;;;5075816;28;19909;-74
2022/07/16 09:37:01;;;;;;;;;;;25.80;54.30;;;;;;5075513;28;20278;-76
2022/07/16 09:39:27;;;;;;;;;;;25.80;54.10;;;;;;5075687;28;19913;-74
2022/07/16 09:41:53;;;;;;;;;;;25.80;54.10;;;;;;5075647;28;19958;-74
2022/07/16 09:44:20;;;;;;;;;;;25.80;53.90;;;;;;5057928;28;20006;-74
2022/07/16 09:47:01;;;;;;;;;;;25.80;53.90;;;;;;5075313;28;19913;-75
2022/07/16 09:49:29;;;;;;;;;;;25.80;53.90;;;;;;5074684;28;20276;-74
2022/07/16 09:51:54;;;;;;;;;;;25.90;53.60;;;;;;5075434;28;19955;-74
2022/07/16 09:54:33;;;;;;;;;;;25.90;53.50;;;;;;5075564;28;20366;-75
2022/07/16 09:57:08;;;;;;;;;;;25.90;53.40;;;;;;5057461;28;19908;-74
2022/07/16 09:59:33;;;;;;;;;;;26.00;53.20;;;;;;5075151;28;19913;-74
2022/07/16 10:02:00;;;;;;;;;;;26.00;53.00;;;;;;5075146;28;20008;-74
2022/07/16 10:04:26;;;;;;;;;;;26.00;53.20;;;;;;5057928;28;20281;-74
2022/07/16 10:06:52;;;;;;;;;;;26.00;53.10;;;;;;5075109;28;19955;-74
2022/07/16 10:09:18;;;;;;;;;;;26.00;52.80;;;;;;5075063;28;20222;-74
2022/07/16 10:11:44;;;;;;;;;;;26.10;52.90;;;;;;5074888;28;19974;-74
2022/07/16 10:14:09;;;;;;;;;;;26.00;52.70;;;;;;5075217;28;19909;-74
2022/07/16 10:16:42;;;;;;;;;;;26.10;52.80;;;;;;5074837;28;19915;-73
2022/07/16 10:19:09;;;;;;;;;;;26.10;52.40;;;;;;5075124;28;19913;-73
2022/07/16 10:21:35;;;;;;;;;;;26.20;52.40;;;;;;5075142;28;19909;-73
2022/07/16 10:24:04;;;;;;;;;;;26.20;52.10;;;;;;5074773;28;19908;-74
2022/07/16 10:26:32;;;;;;;;;;;26.30;51.80;;;;;;5075114;28;19962;-74
2022/07/16 10:28:58;;;;;;;;;;;26.30;51.80;;;;;;5074929;28;20315;-74
2022/07/16 10:31:33;;;;;;;;;;;26.40;52.00;;;;;;5074541;28;20025;-73
2022/07/16 10:34:10;;;;;;;;;;;26.40;51.50;;;;;;5075254;28;19919;-74
2022/07/16 10:36:44;;;;;;;;;;;26.50;52.00;;;;;;5074127;28;19916;-74
2022/07/16 10:39:14;;;;;;;;;;;26.50;51.20;;;;;;5074717;28;19916;-74
2022/07/16 10:41:47;;;;;;;;;;;26.50;51.10;;;;;;5074117;28;19928;-75
2022/07/16 10:44:13;;;;;;;;;;;25.80;50.70;;;;;;5074705;28;19940;-74
2022/07/16 10:46:52;;;;;;;;;;;26.70;50.70;;;;;;5056933;28;20425;-74
2022/07/16 10:49:18;;;;;;;;;;;26.70;50.50;;;;;;5074725;28;19958;-73
2022/07/16 10:51:53;;;;;;;;;;;26.80;50.70;;;;;;5074107;28;20017;-74
2022/07/16 10:54:19;;;;;;;;;;;26.80;50.70;;;;;;5074128;28;20500;-74
2022/07/16 10:56:46;;;;;;;;;;;27.00;50.30;;;;;;5074509;28;19999;-75
2022/07/16 10:59:13;;;;;;;;;;;27.00;50.40;;;;;;5074184;28;20059;-74
2022/07/16 11:01:39;;;;;;;;;;;27.00;49.60;;;;;;5074297;28;20444;-75
2022/07/16 11:04:06;;;;;;;;;;;27.10;49.70;;;;;;5074155;28;20007;-75
2022/07/16 11:06:32;;;;;;;;;;;27.10;49.80;;;;;;5074113;28;19915;-75
2022/07/16 11:09:02;;;;;;;;;;;27.10;49.50;;;;;;5074124;28;19915;-74
2022/07/16 11:11:33;;;;;;;;;;;27.10;49.60;;;;;;5073963;28;19916;-73
2022/07/16 11:13:59;;;;;;;;;;;27.20;49.50;;;;;;5074595;28;19917;-74
2022/07/16 11:16:25;;;;;;;;;;;27.20;49.10;;;;;;5074054;28;19916;-75
2022/07/16 11:18:51;;;;;;;;;;;27.20;49.40;;;;;;5074044;28;19908;-75
2022/07/16 11:21:16;;;;;;;;;;;27.20;48.90;;;;;;5073812;28;19908;-74
2022/07/16 11:23:48;;;;;;;;;;;27.20;47.20;;;;;;5074108;28;20015;-73
2022/07/16 11:26:13;;;;;;;;;;;27.20;48.60;;;;;;5073942;28;19913;-74
2022/07/16 11:28:49;;;;;;;;;;;27.20;48.80;;;;;;5073788;28;19962;-74
2022/07/16 11:31:15;;;;;;;;;;;27.20;48.50;;;;;;5073810;28;19916;-76
2022/07/16 11:33:41;;;;;;;;;;;27.20;48.20;;;;;;5073658;28;19920;-74
2022/07/16 11:36:08;;;;;;;;;;;27.20;48.50;;;;;;5055786;28;19950;-74
2022/07/16 11:38:34;;;;;;;;;;;27.30;47.90;;;;;;5074203;28;19995;-74
2022/07/16 11:41:00;;;;;;;;;;;27.30;47.40;;;;;;5073639;28;20074;-75
2022/07/16 11:43:29;;;;;;;;;;;27.40;48.00;;;;;;5074000;28;19916;-75
2022/07/16 11:45:54;;;;;;;;;;;27.40;48.00;;;;;;5074148;28;19920;-75
2022/07/16 11:48:20;;;;;;;;;;;27.50;48.00;;;;;;5076838;28;19912;-75
2022/07/16 11:50:46;;;;;;;;;;;27.50;48.00;;;;;;5077753;28;20243;-72
2022/07/16 11:53:12;;;;;;;;;;;27.60;47.80;;;;;;5060138;28;20315;-72
2022/07/16 11:55:44;;;;;;;;;;;27.70;47.70;;;;;;5077915;28;19908;-75
2022/07/16 11:58:13;;;;;;;;;;;27.70;47.40;;;;;;5077974;28;19908;-74
2022/07/16 12:00:45;;;;;;;;;;;27.70;47.30;;;;;;5077536;28;19940;-74
2022/07/16 12:03:11;;;;;;;;;;;27.80;47.20;;;;;;5077681;28;19909;-74
2022/07/16 12:05:36;;;;;;;;;;;27.70;47.10;;;;;;5060420;28;19909;-74
2022/07/16 12:08:03;;;;;;;;;;;27.70;47.20;;;;;;5077742;28;19908;-74
2022/07/16 12:10:28;;;;;;;;;;;27.80;46.90;;;;;;5077278;28;19975;-74
2022/07/16 12:13:04;;;;;;;;;;;27.80;47.20;;;;;;5077572;28;19944;-74
2022/07/16 12:15:30;;;;;;;;;;;27.90;47.10;;;;;;5077354;28;20011;-75
2022/07/16 12:18:09;;;;;;;;;;;27.90;46.80;;;;;;5077280;28;19939;-74
2022/07/16 12:20:35;;;;;;;;;;;27.90;46.80;;;;;;5077297;28;19908;-74
2022/07/16 12:23:02;;;;;;;;;;;28.00;46.80;;;;;;5077275;28;19916;-74
2022/07/16 12:25:27;;;;;;;;;;;28.00;46.70;;;;;;5077421;28;19912;-74
2022/07/16 12:28:06;;;;;;;;;;;28.00;46.60;;;;;;5059086;28;19973;-74
2022/07/16 12:30:31;;;;;;;;;;;28.10;46.50;;;;;;5076972;28;19919;-74
2022/07/16 12:32:57;;;;;;;;;;;28.00;46.40;;;;;;5077148;28;19913;-74
2022/07/16 12:35:38;;;;;;;;;;;28.00;46.30;;;;;;5076913;28;19941;-74
2022/07/16 12:38:04;;;;;;;;;;;28.00;46.30;;;;;;5076749;28;20421;-74
2022/07/16 12:40:30;;;;;;;;;;;28.00;46.30;;;;;;5076765;28;19925;-73
2022/07/16 12:42:55;;;;;;;;;;;28.00;46.30;;;;;;5076889;28;19950;-73
2022/07/16 12:45:21;;;;;;;;;;;28.10;46.30;;;;;;5077025;28;19912;-74
2022/07/16 12:47:46;;;;;;;;;;;28.10;45.80;;;;;;5076761;28;19952;-74
2022/07/16 12:50:12;;;;;;;;;;;28.10;46.20;;;;;;5076307;28;19919;-74
2022/07/16 12:52:37;;;;;;;;;;;28.20;46.20;;;;;;5076665;28;20319;-74
2022/07/16 13:00:33;;;;;;;;;;;28.40;46.00;;;;;;5076177;28;20464;-74
2022/07/16 13:02:58;;;;;;;;;;;28.50;45.90;;;;;;5076817;28;20006;-74
2022/07/16 13:05:25;;;;;;;;;;;28.60;46.20;;;;;;5076696;28;19956;-74
2022/07/16 13:07:50;;;;;;;;;;;28.70;45.70;;;;;;5076204;28;20548;-74
2022/07/16 13:10:16;;;;;;;;;;;28.80;45.80;;;;;;5076146;28;20016;-74
2022/07/16 13:12:41;;;;;;;;;;;29.00;45.50;;;;;;5076394;28;19958;-74
2022/07/16 13:15:07;;;;;;;;;;;29.00;45.80;;;;;;5076034;28;20224;-74
2022/07/16 13:17:33;;;;;;;;;;;29.10;44.90;;;;;;5076683;28;19915;-74
2022/07/16 13:19:58;;;;;;;;;;;29.10;44.90;;;;;;5075928;28;19916;-74
2022/07/16 13:22:24;;;;;;;;;;;29.10;44.70;;;;;;5076042;28;19909;-74
2022/07/16 13:24:49;;;;;;;;;;;29.20;44.70;;;;;;5076020;28;19909;-74
2022/07/16 13:27:15;;;;;;;;;;;29.30;44.70;;;;;;5075922;28;20277;-74
2022/07/16 13:29:41;;;;;;;;;;;29.40;44.20;;;;;;5076064;28;19920;-75
2022/07/16 13:32:06;;;;;;;;;;;29.40;44.30;;;;;;5075967;28;19919;-73
2022/07/16 13:34:32;;;;;;;;;;;29.50;44.00;;;;;;5075763;28;19908;-74
2022/07/16 13:36:57;;;;;;;;;;;29.70;44.20;;;;;;5075708;28;20325;-74
2022/07/16 13:39:23;;;;;;;;;;;29.80;43.80;;;;;;5075351;28;20432;-74
2022/07/16 13:41:48;;;;;;;;;;;29.90;43.70;;;;;;5075411;28;20334;-74
2022/07/16 13:44:14;;;;;;;;;;;30.20;43.60;;;;;;5075609;28;19948;-74
2022/07/16 13:46:40;;;;;;;;;;;30.50;43.60;;;;;;5075861;28;19920;-74
2022/07/16 13:49:05;;;;;;;;;;;31.00;43.60;;;;;;5075559;28;20309;-73
2022/07/16 13:51:31;;;;;;;;;;;31.60;43.30;;;;;;5057702;28;19916;-73
2022/07/16 13:53:56;;;;;;;;;;;32.20;43.40;;;;;;5075474;28;19912;-73
2022/07/16 13:56:22;;;;;;;;;;;32.90;42.70;;;;;;5075240;28;20003;-72
2022/07/16 13:58:47;;;;;;;;;;;33.60;43.00;;;;;;5075051;28;19915;-73
2022/07/16 14:01:14;;;;;;;;;;;34.30;42.90;;;;;;5057111;28;19912;-74
2022/07/16 14:03:40;;;;;;;;;;;35.00;42.30;;;;;;5074686;28;20005;-75
2022/07/16 14:06:06;;;;;;;;;;;35.70;42.30;;;;;;5056914;28;20390;-74
2022/07/16 14:08:32;;;;;;;;;;;36.30;41.10;;;;;;5075048;28;19984;-74
2022/07/16 14:10:57;;;;;;;;;;;37.00;41.40;;;;;;5056940;28;19974;-75
2022/07/16 14:13:23;;;;;;;;;;;37.60;41.10;;;;;;5076127;28;19912;-74
2022/07/16 14:15:49;;;;;;;;;;;38.20;41.00;;;;;;5075179;28;19958;-74
2022/07/16 14:18:15;;;;;;;;;;;38.70;40.50;;;;;;5074882;28;19908;-75
2022/07/16 14:20:42;;;;;;;;;;;39.20;39.80;;;;;;5074932;28;20270;-74
2022/07/16 14:23:08;;;;;;;;;;;39.70;38.80;;;;;;5074903;28;20030;-75
2022/07/16 14:25:36;;;;;;;;;;;40.20;39.10;;;;;;5075010;28;19999;-74
2022/07/16 14:28:02;;;;;;;;;;;40.60;39.40;;;;;;5074694;28;20330;-74